createdAt,value
2018-03-06T00:01:21.374Z,19.63
2018-03-06T00:05:24.718Z,19.43
2018-03-06T00:09:28.055Z,20.10
2018-03-06T00:13:32.143Z,23.00
2018-03-06T00:17:36.246Z,24.57
2018-03-06T00:21:39.598Z,24.87
2018-03-06T00:25:42.919Z,24.83
2018-03-06T00:29:46.260Z,24.00
2018-03-06T00:33:49.594Z,25.40
2018-03-06T00:37:52.918Z,25.07
2018-03-06T00:41:57.023Z,23.90
2018-03-06T00:46:00.366Z,24.87
2018-03-06T00:50:03.723Z,25.83
2018-03-06T00:54:07.046Z,25.70
2018-03-06T00:58:11.157Z,27.00
2018-03-06T01:02:14.473Z,26.53
2018-03-06T01:06:18.589Z,27.03
2018-03-06T01:10:22.676Z,28.27
2018-03-06T01:14:26.060Z,28.37
2018-03-06T01:18:30.114Z,26.57
2018-03-06T01:22:33.459Z,27.97
2018-03-06T01:26:36.808Z,26.67
2018-03-06T01:30:40.152Z,24.03
2018-03-06T01:34:44.247Z,29.30
2018-03-06T01:38:47.599Z,28.50
2018-03-06T01:42:50.918Z,29.50
2018-03-06T01:46:54.273Z,28.33
2018-03-06T01:50:57.595Z,28.30
2018-03-06T01:55:01.695Z,32.30
2018-03-06T01:59:05.039Z,30.80
2018-03-06T02:03:08.391Z,28.43
2018-03-06T02:07:11.730Z,27.90
2018-03-06T02:11:15.081Z,28.10
2018-03-06T02:15:18.417Z,24.70
2018-03-06T02:19:22.512Z,25.23
2018-03-06T02:23:25.863Z,26.90
2018-03-06T02:27:29.200Z,27.90
2018-03-06T02:31:32.542Z,28.90
2018-03-06T02:35:35.878Z,29.77
2018-03-06T02:39:39.219Z,30.77
2018-03-06T02:43:43.430Z,30.93
2018-03-06T02:47:47.498Z,31.50
2018-03-06T02:51:51.614Z,35.43
2018-03-06T02:55:55.867Z,36.63
2018-03-06T02:59:59.305Z,37.50
2018-03-06T03:04:03.640Z,36.97
2018-03-06T03:08:07.059Z,33.20
2018-03-06T03:12:11.246Z,38.27
2018-03-06T03:16:14.625Z,36.13
2018-03-06T03:20:18.125Z,34.50
2018-03-06T03:24:21.485Z,35.77
2018-03-06T03:28:24.892Z,37.07
2018-03-06T03:32:28.321Z,33.73
2018-03-06T03:36:31.692Z,32.50
2018-03-06T03:40:35.069Z,32.30
2018-03-06T03:44:38.443Z,30.63
2018-03-06T03:48:42.603Z,31.53
2018-03-06T03:52:46.030Z,29.07
2018-03-06T04:06:02.948Z,34.53
2018-03-06T04:14:59.503Z,30.93
2018-03-06T04:19:03.646Z,32.13
2018-03-06T04:23:10.239Z,32.77
2018-03-06T04:27:13.570Z,34.33
2018-03-06T04:31:16.906Z,38.13
2018-03-06T04:40:06.501Z,35.73
2018-03-06T04:44:09.832Z,40.37
2018-03-06T04:48:13.175Z,37.47
2018-03-06T04:52:16.499Z,39.37
2018-03-06T04:56:19.838Z,36.97
2018-03-06T05:00:23.179Z,39.70
2018-03-06T05:04:26.518Z,37.83
2018-03-06T05:08:29.842Z,37.17
2018-03-06T05:12:33.183Z,34.50
2018-03-06T05:26:08.632Z,36.80
2018-03-06T05:30:12.065Z,34.67
2018-03-06T05:34:15.503Z,37.43
2018-03-06T05:38:19.275Z,36.47
2018-03-06T05:42:22.732Z,40.03
2018-03-06T05:46:26.147Z,38.87
2018-03-06T05:50:29.556Z,38.57
2018-03-06T05:54:33.028Z,40.10
2018-03-06T05:58:37.213Z,41.70
2018-03-06T06:16:54.102Z,42.60
2018-03-06T06:20:57.572Z,43.00
2018-03-06T06:25:01.027Z,39.97
2018-03-06T06:29:04.541Z,37.93
2018-03-06T06:33:07.963Z,36.20
2018-03-06T06:37:11.394Z,38.17
2018-03-06T06:41:14.760Z,35.30
2018-03-06T06:45:18.167Z,39.33
2018-03-06T06:49:21.548Z,34.90
2018-03-06T06:53:24.903Z,35.60
2018-03-06T06:57:28.252Z,34.90
2018-03-06T08:31:24.515Z,40.23
2018-03-06T08:35:33.884Z,38.20
2018-03-06T08:39:46.918Z,37.73
2018-03-06T08:44:23.520Z,38.57
2018-03-06T08:53:25.240Z,34.93
2018-03-06T09:15:55.107Z,36.23
2018-03-06T09:19:58.431Z,35.93
2018-03-06T09:24:01.763Z,37.27
2018-03-06T09:28:05.067Z,41.07
2018-03-06T09:32:08.386Z,36.10
2018-03-06T09:36:11.705Z,37.73
2018-03-06T09:40:15.031Z,35.77
2018-03-06T09:44:18.354Z,36.97
2018-03-06T09:48:21.654Z,35.13
2018-03-06T09:52:24.991Z,36.70
2018-03-06T09:56:28.310Z,37.97
2018-03-06T10:00:31.611Z,36.70
2018-03-06T10:04:34.930Z,36.30
2018-03-06T10:08:38.255Z,38.13
2018-03-06T10:12:42.314Z,37.53
2018-03-06T10:16:45.621Z,38.90
2018-03-06T10:20:48.937Z,39.27
2018-03-06T10:24:52.237Z,40.10
2018-03-06T10:28:55.559Z,40.77
2018-03-06T10:32:58.882Z,42.57
2018-03-06T10:37:02.950Z,41.87
2018-03-06T10:41:06.274Z,45.53
2018-03-06T10:45:09.572Z,48.23
2018-03-06T10:49:12.890Z,50.93
2018-03-06T10:53:16.237Z,51.63
2018-03-06T10:57:19.528Z,48.10
2018-03-06T11:01:25.522Z,43.10
2018-03-06T11:05:28.840Z,42.90
2018-03-06T11:09:32.150Z,43.47
2018-03-06T11:13:35.467Z,41.77
2018-03-06T11:17:38.791Z,42.47
2018-03-06T11:21:42.879Z,43.30
2018-03-06T11:25:46.259Z,42.80
2018-03-06T11:29:49.877Z,44.00
2018-03-06T11:33:53.166Z,44.73
2018-03-06T11:37:56.498Z,42.83
2018-03-06T11:41:59.810Z,46.20
2018-03-06T11:46:03.140Z,44.47
2018-03-06T11:50:07.231Z,44.83
2018-03-06T11:54:10.558Z,44.77
2018-03-06T11:58:13.873Z,45.80
2018-03-06T12:02:17.972Z,44.57
2018-03-06T12:06:21.296Z,43.70
2018-03-06T12:10:25.394Z,43.93
2018-03-06T12:14:28.689Z,43.10
2018-03-06T12:18:32.003Z,42.63
2018-03-06T12:22:35.321Z,42.90
2018-03-06T12:26:39.378Z,42.60
2018-03-06T12:30:42.697Z,44.73
2018-03-06T12:34:46.011Z,45.57
2018-03-06T12:38:49.345Z,46.70
2018-03-06T12:42:52.674Z,46.73
2018-03-06T12:46:55.981Z,45.33
2018-03-06T12:50:59.298Z,47.87
2018-03-06T12:55:02.615Z,46.73
2018-03-06T12:59:05.951Z,46.73
2018-03-06T13:03:09.255Z,46.17
2018-03-06T13:07:12.589Z,44.27
2018-03-06T13:11:15.895Z,47.53
2018-03-06T13:15:19.210Z,46.73
2018-03-06T13:19:22.507Z,49.07
2018-03-06T13:23:25.842Z,47.70
2018-03-06T13:27:29.154Z,49.67
2018-03-06T13:31:32.480Z,49.27
2018-03-06T13:35:35.790Z,51.23
2018-03-06T13:39:39.114Z,46.70
2018-03-06T13:43:42.434Z,49.87
2018-03-06T13:47:45.732Z,49.90
2018-03-06T13:51:49.056Z,48.63
2018-03-06T13:55:52.377Z,48.57
2018-03-06T13:59:55.694Z,48.80
2018-03-06T14:03:59.780Z,46.57
2018-03-06T14:08:03.094Z,46.30
2018-03-06T14:12:06.427Z,47.10
2018-03-06T14:16:10.486Z,47.80
2018-03-06T14:20:13.803Z,47.97
2018-03-06T14:24:17.098Z,47.43
2018-03-06T14:28:20.423Z,47.00
2018-03-06T14:32:23.738Z,48.03
2018-03-06T14:36:27.074Z,48.87
2018-03-06T14:40:31.135Z,48.03
2018-03-06T14:44:34.451Z,46.73
2018-03-06T14:48:37.782Z,48.63
2018-03-06T14:52:41.847Z,49.70
2018-03-06T14:56:45.809Z,46.93
2018-03-06T15:00:49.151Z,48.97
2018-03-06T15:04:52.470Z,47.90
2018-03-06T15:08:55.795Z,49.47
2018-03-06T15:12:59.141Z,48.50
2018-03-06T15:17:02.470Z,46.93
2018-03-06T15:21:05.806Z,49.13
2018-03-06T15:25:09.118Z,48.57
2018-03-06T15:29:12.451Z,50.37
2018-03-06T15:33:15.794Z,48.13
2018-03-06T15:37:19.103Z,48.40
2018-03-06T15:41:22.475Z,46.57
2018-03-06T15:45:25.886Z,51.23
2018-03-06T15:49:29.987Z,49.60
2018-03-06T15:53:33.353Z,50.87
2018-03-06T15:57:36.732Z,50.73
2018-03-06T16:01:40.100Z,51.93
2018-03-06T16:05:43.450Z,51.33
2018-03-06T16:09:46.840Z,49.27
2018-03-06T16:13:50.204Z,51.77
2018-03-06T16:17:53.652Z,50.77
2018-03-06T16:21:57.162Z,52.30
2018-03-06T16:26:00.682Z,53.37
2018-03-06T16:30:04.125Z,55.03
2018-03-06T16:34:07.496Z,57.43
2018-03-06T16:38:10.875Z,57.63
2018-03-06T16:42:14.253Z,59.67
2018-03-06T16:46:17.613Z,59.20
2018-03-06T16:50:20.985Z,59.23
2018-03-06T16:54:24.379Z,59.67
2018-03-06T16:58:27.758Z,57.80
2018-03-06T17:02:31.146Z,56.03
2018-03-06T17:06:34.515Z,56.87
2018-03-06T17:10:37.897Z,57.80
2018-03-06T17:14:41.280Z,59.77
2018-03-06T17:18:44.663Z,58.97
2018-03-06T17:22:48.073Z,59.23
2018-03-06T17:26:51.442Z,62.17
2018-03-06T17:30:54.882Z,62.80
2018-03-06T17:34:58.296Z,62.07
